createdAt,value
2023-04-23T00:02:03.522Z,99956.22
2023-04-23T00:04:34.174Z,99954.22
2023-04-23T00:07:01.305Z,99958.53
2023-04-23T00:09:30.589Z,99957.72
2023-04-23T00:11:58.621Z,99957.72
2023-04-23T00:14:25.863Z,99953.63
2023-04-23T00:16:53.186Z,99947.66
2023-04-23T00:19:21.766Z,99943.50
2023-04-23T00:21:48.725Z,99945.03
2023-04-23T00:24:15.925Z,99945.03
2023-04-23T00:26:42.896Z,99939.75
2023-04-23T00:29:09.711Z,99943.72
2023-04-23T00:31:36.534Z,99936.31
2023-04-23T00:34:03.700Z,99945.91
2023-04-23T00:36:33.131Z,99939.84
2023-04-23T00:39:00.395Z,99931.59
2023-04-23T00:41:28.688Z,99939.53
2023-04-23T00:43:57.722Z,99939.09
2023-04-23T00:46:26.325Z,99940.94
2023-04-23T00:48:53.811Z,99940.13
2023-04-23T00:51:21.945Z,99941.59
2023-04-23T00:53:49.753Z,99933.41
2023-04-23T00:56:18.270Z,99931.25
2023-04-23T00:58:45.783Z,99927.16
2023-04-23T01:01:13.239Z,99925.84
2023-04-23T01:03:41.986Z,99908.78
2023-04-23T01:06:09.421Z,99920.88
2023-04-23T01:08:37.263Z,99909.50
2023-04-23T01:11:04.742Z,99909.50
2023-04-23T01:13:34.053Z,99906.69
2023-04-23T01:16:01.181Z,99903.88
2023-04-23T01:18:28.423Z,99901.38
2023-04-23T01:21:01.248Z,99902.41
2023-04-23T01:23:28.451Z,99893.78
2023-04-23T01:25:56.249Z,99895.50
2023-04-23T01:28:23.552Z,99891.50
2023-04-23T01:30:54.117Z,99901.13
2023-04-23T01:33:21.590Z,99903.78
2023-04-23T01:35:49.884Z,99898.66
2023-04-23T01:38:18.396Z,99894.81
2023-04-23T01:40:45.953Z,99899.81
2023-04-23T01:43:13.753Z,99898.97
2023-04-23T01:45:41.894Z,99898.16
2023-04-23T01:48:09.092Z,99894.53
2023-04-23T01:50:36.820Z,99894.06
2023-04-23T01:53:03.983Z,99889.59
2023-04-23T01:55:32.420Z,99889.59
2023-04-23T01:57:59.524Z,99891.09
2023-04-23T02:00:27.116Z,99892.97
2023-04-23T02:02:54.779Z,99881.72
2023-04-23T02:05:26.110Z,99877.59
2023-04-23T02:07:53.307Z,99880.75
2023-04-23T02:10:23.446Z,99872.66
2023-04-23T02:12:50.768Z,99881.78
2023-04-23T02:15:18.343Z,99870.03
2023-04-23T02:17:45.695Z,99868.88
2023-04-23T02:20:13.034Z,99870.88
2023-04-23T02:22:41.308Z,99864.75
2023-04-23T02:25:09.073Z,99859.50
2023-04-23T02:27:36.552Z,99860.97
2023-04-23T02:30:03.873Z,99859.00
2023-04-23T02:32:31.492Z,99856.06
2023-04-23T02:35:02.852Z,99861.19
2023-04-23T02:37:29.933Z,99869.16
2023-04-23T02:39:57.103Z,99856.75
2023-04-23T02:42:24.057Z,99861.88
2023-04-23T02:44:51.379Z,99857.75
2023-04-23T02:47:18.379Z,99854.13
2023-04-23T02:49:45.436Z,99859.38
2023-04-23T02:52:12.701Z,99861.25
2023-04-23T02:54:39.959Z,99857.59
2023-04-23T02:57:07.421Z,99855.16
2023-04-23T02:59:35.145Z,99857.13
2023-04-23T03:02:02.598Z,99854.97
2023-04-23T03:04:29.827Z,99860.59
2023-04-23T03:06:57.243Z,99862.13
2023-04-23T03:09:24.618Z,99868.91
2023-04-23T03:11:51.943Z,99861.63
2023-04-23T03:14:19.188Z,99857.66
2023-04-23T03:16:46.346Z,99862.81
2023-04-23T03:19:13.994Z,99857.03
2023-04-23T03:21:41.208Z,99859.03
2023-04-23T03:24:08.624Z,99859.03
2023-04-23T03:26:35.965Z,99859.38
2023-04-23T03:29:03.370Z,99861.69
2023-04-23T03:31:30.346Z,99856.41
2023-04-23T03:33:57.619Z,99851.97
2023-04-23T03:36:24.632Z,99854.28
2023-04-23T03:38:51.782Z,99866.00
2023-04-23T03:41:19.191Z,99856.22
2023-04-23T03:43:46.214Z,99857.41
2023-04-23T03:46:13.543Z,99855.75
2023-04-23T03:48:40.935Z,99865.84
2023-04-23T03:51:07.872Z,99851.97
2023-04-23T03:53:37.288Z,99851.97
2023-04-23T03:56:04.429Z,99856.28
2023-04-23T03:58:33.878Z,99851.00
2023-04-23T04:01:00.990Z,99849.81
2023-04-23T04:03:28.107Z,99850.19
2023-04-23T04:05:57.923Z,99840.09
2023-04-23T04:08:27.206Z,99838.13
2023-04-23T04:10:57.866Z,99842.78
2023-04-23T04:13:24.910Z,99842.91
2023-04-23T04:15:52.017Z,99833.19
2023-04-23T04:18:19.025Z,99838.81
2023-04-23T04:20:46.853Z,99838.31
2023-04-23T04:23:14.236Z,99837.03
2023-04-23T04:25:41.374Z,99835.84
2023-04-23T04:28:10.105Z,99836.53
2023-04-23T04:30:37.530Z,99849.03
2023-04-23T04:33:05.323Z,99838.81
2023-04-23T04:35:32.659Z,99843.28
2023-04-23T04:38:00.440Z,99839.66
2023-04-23T04:40:28.920Z,99834.03
2023-04-23T04:42:55.980Z,99829.59
2023-04-23T04:45:23.814Z,99836.38
2023-04-23T04:47:50.857Z,99826.31
2023-04-23T04:50:19.208Z,99825.81
2023-04-23T04:52:46.555Z,99830.63
2023-04-23T04:55:13.785Z,99831.78
2023-04-23T04:57:40.759Z,99830.94
2023-04-23T05:00:23.371Z,99831.28
2023-04-23T05:02:51.159Z,99833.63
2023-04-23T05:05:19.143Z,99839.22
2023-04-23T05:07:46.275Z,99839.56
2023-04-23T05:10:14.883Z,99828.66
2023-04-23T05:12:45.977Z,99834.78
2023-04-23T05:15:14.361Z,99831.47
2023-04-23T05:17:42.222Z,99823.72
2023-04-23T05:20:11.284Z,99828.50
2023-04-23T05:22:38.875Z,99826.06
2023-04-23T05:25:06.730Z,99838.44
2023-04-23T05:27:34.100Z,99829.53
2023-04-23T05:30:02.687Z,99827.88
2023-04-23T05:32:30.087Z,99830.69
2023-04-23T05:34:58.149Z,99828.38
2023-04-23T05:37:25.934Z,99826.72
2023-04-23T05:39:57.968Z,99818.97
2023-04-23T05:42:25.994Z,99817.31
2023-04-23T05:44:54.581Z,99813.69
2023-04-23T05:47:22.518Z,99812.03
2023-04-23T05:49:50.946Z,99818.00
2023-04-23T05:52:18.876Z,99821.16
2023-04-23T05:54:46.227Z,99814.25
2023-04-23T05:57:13.631Z,99810.59
2023-04-23T05:59:40.770Z,99819.34
2023-04-23T06:02:08.687Z,99821.31
2023-04-23T06:04:36.898Z,99828.44
2023-04-23T06:07:05.388Z,99826.47
2023-04-23T06:09:32.497Z,99832.91
2023-04-23T06:11:59.915Z,99826.47
2023-04-23T06:14:27.891Z,99833.22
2023-04-23T06:16:55.931Z,99833.56
2023-04-23T06:19:25.842Z,99830.75
2023-04-23T06:21:52.851Z,99826.66
2023-04-23T06:24:20.645Z,99835.06
2023-04-23T06:26:48.331Z,99829.78
2023-04-23T06:29:16.978Z,99831.09
2023-04-23T06:31:45.536Z,99830.59
2023-04-23T06:34:16.380Z,99832.91
2023-04-23T06:36:45.603Z,99837.38
2023-04-23T06:39:12.763Z,99835.72
2023-04-23T06:41:39.896Z,99835.25
2023-04-23T06:44:07.089Z,99831.28
2023-04-23T06:46:34.568Z,99840.84
2023-04-23T06:49:06.598Z,99844.47
2023-04-23T06:51:34.435Z,99835.25
2023-04-23T06:54:01.544Z,99837.53
2023-04-23T06:56:29.969Z,99831.47
2023-04-23T06:58:57.582Z,99831.59
2023-04-23T07:01:26.547Z,99829.31
2023-04-23T07:03:55.616Z,99829.63
2023-04-23T07:06:23.347Z,99823.19
2023-04-23T07:08:51.850Z,99831.28
2023-04-23T07:11:36.106Z,99832.75
2023-04-23T07:14:04.725Z,99825.50
2023-04-23T07:16:34.902Z,99835.09
2023-04-23T07:19:10.101Z,99826.19
2023-04-23T07:21:37.513Z,99829.81
2023-04-23T07:24:07.644Z,99828.16
2023-04-23T07:26:37.982Z,99835.75
2023-04-23T07:29:08.494Z,99833.28
2023-04-23T07:31:42.463Z,99827.69
2023-04-23T07:34:13.099Z,99829.66
2023-04-23T07:36:41.977Z,99829.66
2023-04-23T07:39:10.103Z,99833.28
2023-04-23T07:41:43.036Z,99830.50
2023-04-23T07:44:13.326Z,99825.19
2023-04-23T07:46:41.040Z,99823.53
2023-04-23T07:49:17.626Z,99825.53
2023-04-23T07:51:45.707Z,99826.72
2023-04-23T07:54:13.508Z,99828.34
2023-04-23T07:56:46.198Z,99831.50
2023-04-23T07:59:18.350Z,99824.38
2023-04-23T08:01:50.145Z,99825.88
2023-04-23T08:04:19.235Z,99826.16
2023-04-23T08:06:48.656Z,99823.69
2023-04-23T08:09:28.519Z,99826.50
2023-04-23T08:11:59.583Z,99827.31
2023-04-23T08:14:32.648Z,99827.31
2023-04-23T08:17:07.808Z,99831.50
2023-04-23T08:22:35.178Z,99826.16
2023-04-23T08:25:08.521Z,99834.09
2023-04-23T08:27:51.753Z,99830.81
2023-04-23T08:33:11.682Z,99819.91
2023-04-23T08:38:51.588Z,99825.34
2023-04-23T08:47:29.219Z,99817.22
2023-04-23T08:50:18.229Z,99817.88
2023-04-23T08:53:03.282Z,99810.88
2023-04-23T08:58:34.847Z,99816.97
2023-04-23T09:01:02.250Z,99812.00
2023-04-23T09:03:29.724Z,99807.81
2023-04-23T09:05:57.198Z,99811.25
2023-04-23T09:08:24.100Z,99805.91
2023-04-23T09:10:52.701Z,99807.38
2023-04-23T09:13:19.941Z,99804.03
2023-04-23T09:15:46.994Z,99797.91
2023-04-23T09:18:13.896Z,99806.63
2023-04-23T09:20:41.158Z,99799.63
2023-04-23T09:23:08.613Z,99799.41
2023-04-23T09:25:36.931Z,99801.69
2023-04-23T09:28:08.350Z,99801.13
2023-04-23T09:30:45.303Z,99798.94
2023-04-23T09:33:13.012Z,99799.22
2023-04-23T09:35:40.884Z,99799.50
2023-04-23T09:38:08.466Z,99796.13
2023-04-23T09:40:36.774Z,99790.28
2023-04-23T09:43:05.042Z,99796.50
2023-04-23T09:45:33.250Z,99790.69
2023-04-23T09:48:00.407Z,99785.69
2023-04-23T09:50:37.450Z,99790.63
2023-04-23T09:53:05.311Z,99792.38
2023-04-23T09:55:36.042Z,99793.69
2023-04-23T09:58:05.304Z,99792.16
2023-04-23T10:00:34.702Z,99788.66
2023-04-23T10:03:02.420Z,99784.34
2023-04-23T10:05:37.195Z,99780.00
2023-04-23T10:08:07.998Z,99778.84
2023-04-23T10:10:43.159Z,99783.75
2023-04-23T10:13:21.585Z,99783.09
2023-04-23T10:15:48.763Z,99779.09
2023-04-23T10:18:15.925Z,99783.19
2023-04-23T10:20:43.576Z,99772.81
2023-04-23T10:23:12.025Z,99782.75
2023-04-23T10:25:39.720Z,99774.47
2023-04-23T10:28:08.657Z,99778.78
2023-04-23T10:30:36.613Z,99770.97
2023-04-23T10:33:07.401Z,99767.97
2023-04-23T10:35:38.356Z,99766.03
2023-04-23T10:38:05.732Z,99764.16
2023-04-23T10:40:34.512Z,99766.25
2023-04-23T10:43:01.606Z,99763.03
2023-04-23T10:45:31.284Z,99765.78
2023-04-23T10:47:58.998Z,99770.31
2023-04-23T10:50:28.021Z,99763.81
2023-04-23T10:52:58.167Z,99760.19
2023-04-23T10:55:27.182Z,99752.22
2023-04-23T10:58:04.293Z,99752.22
2023-04-23T11:00:44.585Z,99747.91
2023-04-23T11:03:21.450Z,99749.28
2023-04-23T11:05:49.490Z,99746.91
2023-04-23T11:08:19.757Z,99754.13
2023-04-23T11:10:57.657Z,99756.56
2023-04-23T11:13:25.651Z,99749.84
2023-04-23T11:16:02.218Z,99749.31
2023-04-23T11:18:29.423Z,99744.81
2023-04-23T11:20:57.328Z,99749.53
2023-04-23T11:23:30.221Z,99750.63
2023-04-23T11:25:58.211Z,99748.09
2023-04-23T11:28:25.496Z,99739.47
2023-04-23T11:30:54.123Z,99740.88
2023-04-23T11:33:22.010Z,99743.47
2023-04-23T11:35:49.376Z,99740.44
2023-04-23T11:38:16.344Z,99744.22
2023-04-23T11:40:46.749Z,99740.03
2023-04-23T11:43:18.944Z,99735.00
2023-04-23T11:45:46.189Z,99735.13
2023-04-23T11:48:13.495Z,99732.31
2023-04-23T11:50:42.939Z,99736.56
2023-04-23T11:53:10.867Z,99737.88
2023-04-23T11:55:39.014Z,99738.72
2023-04-23T11:58:06.323Z,99741.97
2023-04-23T12:00:33.402Z,99740.81
2023-04-23T12:03:01.686Z,99741.75
2023-04-23T12:05:29.524Z,99741.09
2023-04-23T12:08:07.104Z,99743.75
2023-04-23T12:10:34.327Z,99741.41
2023-04-23T12:13:01.231Z,99740.72
2023-04-23T12:15:28.322Z,99737.91
2023-04-23T12:18:15.337Z,99742.84
2023-04-23T12:20:42.483Z,99747.16
2023-04-23T12:23:14.885Z,99744.84
2023-04-23T12:25:42.884Z,99742.84
2023-04-23T12:28:10.226Z,99741.66
2023-04-23T12:30:44.782Z,99734.41
2023-04-23T12:33:12.438Z,99743.66
2023-04-23T12:35:43.274Z,99733.59
2023-04-23T12:38:23.810Z,99737.56
2023-04-23T12:40:51.847Z,99741.19
2023-04-23T12:43:19.304Z,99738.72
2023-04-23T12:45:46.570Z,99743.06
2023-04-23T12:48:14.158Z,99745.41
2023-04-23T12:50:41.584Z,99736.00
2023-04-23T12:53:08.910Z,99742.81
2023-04-23T12:55:36.818Z,99745.16
2023-04-23T12:58:03.706Z,99751.44
2023-04-23T13:00:30.755Z,99749.84
2023-04-23T13:03:01.386Z,99748.03
2023-04-23T13:05:28.523Z,99748.81
2023-04-23T13:07:55.696Z,99742.25
2023-04-23T13:10:22.804Z,99752.69
2023-04-23T13:12:49.958Z,99741.91
2023-04-23T13:15:18.204Z,99745.06
2023-04-23T13:17:46.534Z,99746.25
2023-04-23T13:20:13.725Z,99743.78
2023-04-23T13:22:40.941Z,99748.47
2023-04-23T13:25:08.221Z,99740.84
2023-04-23T13:27:35.309Z,99743.38
2023-04-23T13:30:02.471Z,99736.13
2023-04-23T13:32:32.634Z,99738.47
2023-04-23T13:35:03.009Z,99737.63
2023-04-23T13:37:31.944Z,99735.53
2023-04-23T13:39:59.072Z,99738.69
2023-04-23T13:42:26.210Z,99743.81
2023-04-23T13:44:56.694Z,99738.56
2023-04-23T13:47:24.464Z,99734.91
2023-04-23T13:49:52.095Z,99740.53
2023-04-23T13:52:22.561Z,99742.03
2023-04-23T13:54:51.569Z,99726.34
2023-04-23T13:57:21.796Z,99737.94
2023-04-23T13:59:48.789Z,99725.75
2023-04-23T14:02:19.680Z,99731.25
2023-04-23T14:04:46.827Z,99726.44
2023-04-23T14:07:13.952Z,99727.94
2023-04-23T14:09:41.302Z,99722.66
2023-04-23T14:12:08.699Z,99723.00
2023-04-23T14:14:38.271Z,99727.31
2023-04-23T14:17:14.378Z,99728.50
2023-04-23T14:19:45.064Z,99725.91
2023-04-23T14:22:15.162Z,99723.56
2023-04-23T14:24:46.238Z,99715.00
2023-04-23T14:27:13.385Z,99722.59
2023-04-23T14:29:41.000Z,99720.94
2023-04-23T14:32:08.344Z,99716.84
2023-04-23T14:34:36.794Z,99720.50
2023-04-23T14:37:10.248Z,99714.50
2023-04-23T14:39:37.353Z,99711.69
2023-04-23T14:42:04.514Z,99716.28
2023-04-23T14:44:31.582Z,99718.63
2023-04-23T14:46:59.582Z,99715.63
2023-04-23T14:49:27.292Z,99715.88
2023-04-23T14:51:54.828Z,99706.41
2023-04-23T14:54:22.230Z,99701.53
2023-04-23T14:56:49.520Z,99703.78
2023-04-23T14:59:17.046Z,99706.50
2023-04-23T15:01:44.995Z,99706.41
2023-04-23T15:04:12.615Z,99707.00
2023-04-23T15:06:40.940Z,99710.75
2023-04-23T15:09:08.058Z,99713.72
2023-04-23T15:11:35.234Z,99715.50
2023-04-23T15:14:03.966Z,99707.31
2023-04-23T15:19:04.825Z,99704.25
2023-04-23T15:21:31.804Z,99703.91
2023-04-23T15:23:58.794Z,99708.50
2023-04-23T15:26:26.124Z,99703.69
2023-04-23T15:28:53.315Z,99704.97
2023-04-23T15:31:20.569Z,99708.38
2023-04-23T15:33:48.402Z,99705.56
2023-04-23T15:36:15.849Z,99705.22
2023-04-23T15:38:43.104Z,99702.06
2023-04-23T15:41:11.704Z,99712.63
2023-04-23T15:43:38.740Z,99705.13
2023-04-23T15:46:06.262Z,99701.47
2023-04-23T15:48:33.288Z,99705.94
2023-04-23T15:51:00.426Z,99697.50
2023-04-23T15:53:30.810Z,99701.13
2023-04-23T15:55:58.113Z,99704.78
2023-04-23T15:58:25.176Z,99706.75
2023-04-23T16:00:52.524Z,99709.47
2023-04-23T16:03:20.165Z,99707.00
2023-04-23T16:05:48.885Z,99713.34
2023-04-23T16:08:17.861Z,99699.59
2023-04-23T16:10:44.984Z,99693.97
2023-04-23T16:13:12.054Z,99695.97
2023-04-23T16:15:39.722Z,99697.97
2023-04-23T16:18:06.951Z,99704.75
2023-04-23T16:20:34.151Z,99693.88
2023-04-23T16:23:01.999Z,99701.81
2023-04-23T16:25:29.134Z,99702.16
2023-04-23T16:27:56.712Z,99704.84
2023-04-23T16:30:24.361Z,99694.31
2023-04-23T16:32:51.550Z,99700.28
2023-04-23T16:35:18.643Z,99707.44
2023-04-23T16:37:46.183Z,99701.31
2023-04-23T16:40:15.816Z,99705.19
2023-04-23T16:42:43.864Z,99704.38
2023-04-23T16:45:11.288Z,99702.97
2023-04-23T16:47:38.592Z,99701.19
2023-04-23T16:50:05.961Z,99702.22
2023-04-23T16:52:33.428Z,99708.81
2023-04-23T16:55:01.162Z,99695.75
2023-04-23T16:57:28.623Z,99707.84
2023-04-23T16:59:55.822Z,99709.34
2023-04-23T17:02:22.902Z,99708.50
2023-04-23T17:04:50.449Z,99712.50
2023-04-23T17:07:17.601Z,99706.41
2023-04-23T17:09:44.752Z,99712.25
2023-04-23T17:12:11.862Z,99719.75
2023-04-23T17:14:39.112Z,99723.16
2023-04-23T17:17:06.234Z,99725.97
2023-04-23T17:19:34.337Z,99738.50
2023-04-23T17:22:01.650Z,99738.38
2023-04-23T17:24:28.774Z,99746.69
2023-04-23T17:26:56.828Z,99743.75
2023-04-23T17:29:24.013Z,99747.34
2023-04-23T17:31:53.698Z,99752.66
2023-04-23T17:34:20.962Z,99756.63
2023-04-23T17:36:48.163Z,99764.59
2023-04-23T17:39:20.443Z,99782.63
2023-04-23T17:41:47.523Z,99786.47
2023-04-23T17:44:14.819Z,99790.44
2023-04-23T17:46:41.889Z,99797.72
2023-04-23T17:49:11.026Z,99791.84
2023-04-23T17:51:38.407Z,99795.59
2023-04-23T17:54:06.444Z,99797.28
2023-04-23T17:56:33.942Z,99798.81
2023-04-23T17:59:01.325Z,99798.31
2023-04-23T18:01:28.482Z,99804.31
2023-04-23T18:03:55.962Z,99801.81
2023-04-23T18:06:23.487Z,99802.53
2023-04-23T18:08:50.839Z,99808.47
2023-04-23T18:11:18.821Z,99814.91
2023-04-23T18:13:46.074Z,99838.09
2023-04-23T18:16:13.303Z,99845.53
2023-04-23T18:18:41.013Z,99865.56
2023-04-23T18:21:08.264Z,99870.69
2023-04-23T18:23:36.332Z,99883.09
2023-04-23T18:26:03.372Z,99895.84
2023-04-23T18:28:30.747Z,99888.09
2023-04-23T18:31:02.827Z,99913.56
2023-04-23T18:33:32.884Z,99926.78
2023-04-23T18:36:05.657Z,99932.25
2023-04-23T18:38:32.901Z,99937.38
2023-04-23T18:41:03.108Z,99944.97
2023-04-23T18:43:33.910Z,99949.28
2023-04-23T18:46:02.739Z,99946.31
2023-04-23T18:48:39.645Z,99958.19
2023-04-23T18:51:19.472Z,99954.91
2023-04-23T18:53:47.242Z,99961.38
2023-04-23T18:56:14.789Z,99970.13
2023-04-23T18:58:41.945Z,99966.81
2023-04-23T19:01:12.335Z,99970.81
2023-04-23T19:03:39.571Z,99971.81
2023-04-23T19:06:08.107Z,99977.75
2023-04-23T19:08:36.051Z,99976.78
2023-04-23T19:11:03.254Z,99987.16
2023-04-23T19:13:30.856Z,99985.50
2023-04-23T19:15:58.126Z,99990.16
2023-04-23T19:18:25.277Z,99992.13
2023-04-23T19:20:55.890Z,99991.97
2023-04-23T19:23:22.956Z,99995.47
2023-04-23T19:25:50.543Z,99993.97
2023-04-23T19:28:17.946Z,100007.69
2023-04-23T19:30:45.103Z,100007.31
2023-04-23T19:33:12.629Z,100012.28
2023-04-23T19:35:40.364Z,100016.25
2023-04-23T19:38:07.880Z,100014.09
2023-04-23T19:40:35.250Z,100018.34
2023-04-23T19:43:05.944Z,100027.44
2023-04-23T19:45:32.953Z,100030.56
2023-04-23T19:48:00.397Z,100031.88
2023-04-23T19:50:27.800Z,100036.19
2023-04-23T19:52:54.987Z,100040.97
2023-04-23T19:55:27.400Z,100040.44
2023-04-23T19:57:55.567Z,100049.50
2023-04-23T20:00:24.561Z,100045.69
2023-04-23T20:02:52.508Z,100049.97
2023-04-23T20:05:20.394Z,100056.56
2023-04-23T20:07:47.551Z,100059.53
2023-04-23T20:10:17.307Z,100065.66
2023-04-23T20:12:44.820Z,100066.63
2023-04-23T20:15:14.581Z,100074.38
2023-04-23T20:17:42.174Z,100067.72
2023-04-23T20:20:11.051Z,100074.69
2023-04-23T20:22:38.233Z,100074.31
2023-04-23T20:25:08.123Z,100074.00
2023-04-23T20:27:35.259Z,100081.28
2023-04-23T20:30:04.223Z,100080.25
2023-04-23T20:32:31.240Z,100074.78
2023-04-23T20:34:59.766Z,100086.03
2023-04-23T20:37:27.607Z,100091.31
2023-04-23T20:39:55.176Z,100092.16
2023-04-23T20:42:22.210Z,100095.75
2023-04-23T20:44:49.591Z,100101.38
2023-04-23T20:47:17.016Z,100102.72
2023-04-23T20:49:44.444Z,100102.72
2023-04-23T20:52:15.077Z,100101.56
2023-04-23T20:54:45.264Z,100102.72
2023-04-23T20:57:12.335Z,100110.31
2023-04-23T20:59:39.386Z,100110.66
2023-04-23T21:02:08.032Z,100107.00
2023-04-23T21:04:35.125Z,100111.84
2023-04-23T21:07:02.273Z,100118.63
2023-04-23T21:09:29.215Z,100125.91
2023-04-23T21:11:57.342Z,100133.50
2023-04-23T21:15:05.029Z,100131.53
2023-04-23T21:17:32.026Z,100140.75
2023-04-23T21:19:59.063Z,100145.91
2023-04-23T21:22:26.011Z,100143.44
2023-04-23T21:24:53.045Z,100142.13
2023-04-23T21:27:22.248Z,100149.22
2023-04-23T21:29:50.041Z,100148.41
2023-04-23T21:32:17.352Z,100155.53
2023-04-23T21:34:44.338Z,100158.50
2023-04-23T21:37:11.404Z,100159.81
2023-04-23T21:39:38.403Z,100163.47
2023-04-23T21:42:05.541Z,100166.09
2023-04-23T21:44:33.213Z,100162.13
2023-04-23T21:47:00.288Z,100164.47
2023-04-23T21:49:28.183Z,100164.47
2023-04-23T21:51:56.387Z,100163.28
2023-04-23T21:54:23.315Z,100175.72
2023-04-23T21:56:52.602Z,100170.75
2023-04-23T21:59:19.737Z,100172.72
2023-04-23T22:01:46.812Z,100175.41
2023-04-23T22:04:14.655Z,100180.53
2023-04-23T22:06:41.681Z,100178.75
2023-04-23T22:09:08.857Z,100177.91
2023-04-23T22:11:38.431Z,100179.38
2023-04-23T22:14:06.781Z,100187.50
2023-04-23T22:16:36.825Z,100195.59
2023-04-23T22:19:07.182Z,100191.31
2023-04-23T22:21:34.161Z,100193.28
2023-04-23T22:24:01.265Z,100192.97
2023-04-23T22:26:28.421Z,100198.75
2023-04-23T22:28:55.624Z,100196.75
2023-04-23T22:31:22.655Z,100194.09
2023-04-23T22:33:49.734Z,100198.22
2023-04-23T22:36:17.432Z,100205.16
2023-04-23T22:38:44.565Z,100205.31
2023-04-23T22:41:11.711Z,100199.84
2023-04-23T22:43:38.688Z,100205.97
2023-04-23T22:46:05.978Z,100192.06
2023-04-23T22:48:33.615Z,100199.81
2023-04-23T22:51:00.551Z,100203.63
2023-04-23T22:53:27.650Z,100209.44
2023-04-23T22:55:54.699Z,100220.84
2023-04-23T22:58:21.898Z,100219.31
2023-04-23T23:00:49.025Z,100215.88
2023-04-23T23:03:16.802Z,100214.34
2023-04-23T23:05:44.170Z,100220.47
2023-04-23T23:08:11.316Z,100223.44
2023-04-23T23:10:38.823Z,100220.31
2023-04-23T23:13:05.928Z,100226.41
2023-04-23T23:15:32.906Z,100233.69
2023-04-23T23:17:59.924Z,100242.63
2023-04-23T23:20:26.985Z,100249.06
2023-04-23T23:22:53.975Z,100252.38
2023-04-23T23:25:21.077Z,100254.84
2023-04-23T23:27:48.158Z,100253.66
2023-04-23T23:30:15.205Z,100260.63
2023-04-23T23:32:42.316Z,100261.47
2023-04-23T23:35:09.950Z,100265.09
2023-04-23T23:37:37.524Z,100259.47
2023-04-23T23:40:06.166Z,100261.94
2023-04-23T23:42:33.152Z,100268.75
2023-04-23T23:45:00.123Z,100275.16
2023-04-23T23:47:27.776Z,100279.66
2023-04-23T23:49:54.898Z,100276.00
2023-04-23T23:52:21.851Z,100280.81
2023-04-23T23:54:48.809Z,100288.44
2023-04-23T23:57:16.140Z,100292.88
2023-04-23T23:59:43.321Z,100282.81
